Time;durP1;ratioP1;P1;durP2;ratioP2;P2;SDS_P1;SDS_P2;PMS_P1;PMS_P2;Temp;Humidity;BMP_temperature;BMP_pressure;BME280_temperature;BME280_humidity;BME280_pressure;Samples;Min_cycle;Max_cycle;Signal;HPM_P1;HPM_P2
2024/03/23 00:02:26;;;;;;;3.60;1.70;;;10.20;91.00;;;;;;5064276;28;20024;-66
2024/03/23 00:04:53;;;;;;;5.20;2.22;;;10.20;91.00;;;;;;5063518;28;20619;-66
2024/03/23 00:07:19;;;;;;;3.95;1.70;;;10.20;90.90;;;;;;5065561;28;20024;-66
2024/03/23 00:09:46;;;;;;;4.97;1.95;;;10.20;90.90;;;;;;5068850;28;20036;-66
2024/03/23 00:12:12;;;;;;;3.67;1.88;;;10.20;90.90;;;;;;5069017;28;20386;-65
2024/03/23 00:14:39;;;;;;;4.03;1.60;;;10.20;91.00;;;;;;5063028;28;20040;-65
2024/03/23 00:17:05;;;;;;;3.08;1.60;;;10.20;90.90;;;;;;5065834;28;20081;-66
2024/03/23 00:19:32;;;;;;;4.03;1.65;;;10.20;90.90;;;;;;5066033;28;20037;-65
2024/03/23 00:21:58;;;;;;;4.30;1.70;;;10.10;90.90;;;;;;5068163;28;20024;-65
2024/03/23 00:24:25;;;;;;;3.35;1.58;;;10.10;90.90;;;;;;5066803;28;20430;-65
2024/03/23 00:26:52;;;;;;;5.07;1.60;;;10.10;90.90;;;;;;5068641;28;20031;-66
2024/03/23 00:29:19;;;;;;;4.05;1.63;;;10.00;90.90;;;;;;5062632;28;20028;-65
2024/03/23 00:31:46;;;;;;;4.00;1.90;;;10.00;90.90;;;;;;5063414;28;20032;-65
2024/03/23 00:34:12;;;;;;;6.45;1.98;;;10.00;90.90;;;;;;5068002;28;20021;-65
2024/03/23 00:36:39;;;;;;;4.25;1.60;;;10.00;90.90;;;;;;5069662;28;20028;-66
2024/03/23 00:39:06;;;;;;;3.53;1.63;;;9.90;90.90;;;;;;5068402;28;20567;-66
2024/03/23 00:41:32;;;;;;;3.67;1.77;;;9.90;91.00;;;;;;5068449;28;20054;-65
2024/03/23 00:43:59;;;;;;;4.00;1.50;;;9.90;91.00;;;;;;5067677;28;20025;-65
2024/03/23 00:46:25;;;;;;;6.18;1.88;;;9.90;91.00;;;;;;5066281;28;20039;-66
2024/03/23 00:48:52;;;;;;;3.75;1.90;;;9.90;91.00;;;;;;5068742;28;20415;-66
2024/03/23 00:51:18;;;;;;;4.72;1.85;;;9.90;91.10;;;;;;5073446;28;20021;-65
2024/03/23 00:53:44;;;;;;;4.97;2.20;;;9.80;91.00;;;;;;5070583;28;20529;-65
2024/03/23 00:56:09;;;;;;;5.93;2.05;;;9.80;91.10;;;;;;5068889;28;20016;-67
2024/03/23 00:58:35;;;;;;;3.75;2.10;;;9.80;91.10;;;;;;5068163;28;20427;-67
2024/03/23 01:01:03;;;;;;;7.20;2.13;;;9.80;91.10;;;;;;5071104;28;20020;-66
2024/03/23 01:03:29;;;;;;;2.97;1.83;;;9.80;91.10;;;;;;5071148;28;20103;-66
2024/03/23 01:05:58;;;;;;;4.85;2.00;;;9.80;91.10;;;;;;5070942;28;20127;-64
2024/03/23 01:08:23;;;;;;;4.88;2.35;;;9.70;91.10;;;;;;5071649;28;20367;-66
2024/03/23 01:11:00;;;;;;;3.60;1.90;;;9.70;91.10;;;;;;5071718;28;20027;-63
2024/03/23 01:13:26;;;;;;;4.45;2.03;;;9.70;91.20;;;;;;5070750;28;20024;-66
2024/03/23 01:15:52;;;;;;;3.85;1.98;;;9.60;91.20;;;;;;5068910;28;20028;-66
2024/03/23 01:18:19;;;;;;;4.25;2.25;;;9.60;91.20;;;;;;5071927;28;20041;-66
2024/03/23 01:20:45;;;;;;;3.45;1.90;;;9.60;91.20;;;;;;5071903;28;20029;-66
2024/03/23 01:23:11;;;;;;;4.18;1.98;;;9.60;91.20;;;;;;5072455;28;20088;-64
2024/03/23 01:25:37;;;;;;;3.35;2.13;;;9.70;91.20;;;;;;5069500;28;20698;-66
2024/03/23 01:28:03;;;;;;;5.32;2.17;;;9.70;91.20;;;;;;5073474;28;20020;-66
2024/03/23 01:30:29;;;;;;;3.60;2.13;;;9.60;91.20;;;;;;5074598;28;20028;-67
2024/03/23 01:32:55;;;;;;;6.35;2.72;;;9.60;91.20;;;;;;5073154;28;20043;-67
2024/03/23 01:35:20;;;;;;;5.43;2.40;;;9.60;91.20;;;;;;5069891;28;20040;-66
2024/03/23 01:37:46;;;;;;;4.40;2.17;;;9.60;91.30;;;;;;5070967;28;20032;-65
2024/03/23 01:40:13;;;;;;;4.63;2.35;;;9.60;91.30;;;;;;5070457;28;20160;-67
2024/03/23 01:42:39;;;;;;;4.05;1.77;;;9.60;91.30;;;;;;5071677;28;20044;-66
2024/03/23 01:45:08;;;;;;;4.50;2.40;;;9.50;91.30;;;;;;5067497;28;20066;-65
2024/03/23 01:47:34;;;;;;;5.88;2.40;;;9.50;91.40;;;;;;5071402;28;20127;-66
2024/03/23 01:50:00;;;;;;;5.70;2.28;;;9.50;91.40;;;;;;5071215;28;20388;-66
2024/03/23 01:52:27;;;;;;;6.05;2.45;;;9.50;91.40;;;;;;5074155;28;20035;-65
2024/03/23 01:54:53;;;;;;;4.85;2.15;;;9.50;91.40;;;;;;5070476;28;20028;-65
2024/03/23 01:57:20;;;;;;;4.78;2.15;;;9.50;91.40;;;;;;5072669;28;20165;-66
2024/03/23 01:59:47;;;;;;;5.30;2.25;;;9.50;91.40;;;;;;5070500;28;20113;-66
2024/03/23 02:02:12;;;;;;;4.60;2.30;;;9.50;91.40;;;;;;5071513;28;20020;-66
2024/03/23 02:04:38;;;;;;;4.95;2.60;;;9.50;91.40;;;;;;5072124;28;20028;-65
2024/03/23 02:07:06;;;;;;;6.30;2.30;;;9.50;91.40;;;;;;5070625;28;20023;-67
2024/03/23 02:09:32;;;;;;;6.93;2.38;;;9.60;91.40;;;;;;5068998;28;20048;-65
2024/03/23 02:11:58;;;;;;;4.88;2.38;;;9.60;91.40;;;;;;5069958;28;20125;-64
2024/03/23 02:14:23;;;;;;;4.32;2.30;;;9.60;91.40;;;;;;5071431;28;20024;-64
2024/03/23 02:16:49;;;;;;;5.10;2.20;;;9.60;91.30;;;;;;5072169;28;20103;-67
2024/03/23 02:19:15;;;;;;;5.05;2.38;;;9.60;91.30;;;;;;5068356;28;20117;-66
2024/03/23 02:21:40;;;;;;;3.83;2.05;;;9.60;91.30;;;;;;5071299;28;20028;-63
2024/03/23 02:24:06;;;;;;;6.82;2.88;;;9.60;91.30;;;;;;5070578;28;20037;-65
2024/03/23 02:26:32;;;;;;;6.68;3.05;;;9.50;91.40;;;;;;5071596;28;20027;-65
2024/03/23 02:28:57;;;;;;;6.30;2.70;;;9.60;91.40;;;;;;5070555;28;20056;-65
2024/03/23 02:31:23;;;;;;;5.72;3.00;;;9.50;91.40;;;;;;5068624;28;20074;-66
2024/03/23 02:33:48;;;;;;;5.47;2.60;;;9.50;91.30;;;;;;5069835;28;20024;-66
2024/03/23 02:36:14;;;;;;;5.78;2.67;;;9.50;91.40;;;;;;5070437;28;20024;-67
2024/03/23 02:38:40;;;;;;;5.07;2.60;;;9.50;91.40;;;;;;5071999;28;20625;-65
2024/03/23 02:41:05;;;;;;;6.53;2.53;;;9.50;91.40;;;;;;5074251;28;20478;-66
2024/03/23 02:43:31;;;;;;;4.65;2.38;;;9.40;91.40;;;;;;5067962;28;20542;-66
2024/03/23 02:45:57;;;;;;;6.65;2.47;;;9.40;91.40;;;;;;5069959;28;20028;-66
2024/03/23 02:48:23;;;;;;;4.82;2.28;;;9.30;91.40;;;;;;5074352;28;20028;-66
2024/03/23 02:50:49;;;;;;;5.30;2.38;;;9.30;91.50;;;;;;5071369;28;20047;-65
2024/03/23 02:53:14;;;;;;;3.65;2.15;;;9.30;91.50;;;;;;5070249;28;20024;-66
2024/03/23 02:55:40;;;;;;;4.00;2.47;;;9.20;91.50;;;;;;5069278;28;20025;-66
2024/03/23 02:58:05;;;;;;;4.95;2.30;;;9.20;91.60;;;;;;5070006;28;20108;-66
2024/03/23 03:00:31;;;;;;;6.32;2.70;;;9.10;91.70;;;;;;5069296;28;20055;-65
2024/03/23 03:02:56;;;;;;;4.97;2.60;;;9.10;91.70;;;;;;5066054;28;20024;-65
2024/03/23 03:05:22;;;;;;;5.63;2.67;;;9.10;91.70;;;;;;5067544;28;20021;-66
2024/03/23 03:07:48;;;;;;;3.67;2.25;;;9.10;91.70;;;;;;5069093;28;20025;-66
2024/03/23 03:10:14;;;;;;;5.22;2.38;;;9.00;91.70;;;;;;5070260;28;20189;-67
2024/03/23 03:12:39;;;;;;;5.35;2.67;;;9.00;91.70;;;;;;5072153;28;20056;-66
2024/03/23 03:15:07;;;;;;;4.55;2.35;;;9.00;91.70;;;;;;5071850;28;20027;-66
2024/03/23 03:17:33;;;;;;;5.10;2.83;;;9.00;91.70;;;;;;5073053;28;20116;-67
2024/03/23 03:19:59;;;;;;;7.93;3.08;;;8.90;91.70;;;;;;5070034;28;20514;-67
2024/03/23 03:22:25;;;;;;;6.80;3.70;;;8.90;91.70;;;;;;5077347;28;20481;-64
2024/03/23 03:24:50;;;;;;;7.82;3.38;;;8.90;91.80;;;;;;5069342;28;20032;-66
2024/03/23 03:27:16;;;;;;;8.02;3.25;;;8.80;91.80;;;;;;5073311;28;20055;-66
2024/03/23 03:29:41;;;;;;;6.40;3.03;;;8.80;91.80;;;;;;5071576;28;20025;-65
2024/03/23 03:32:07;;;;;;;6.13;2.70;;;8.80;91.80;;;;;;5071838;28;20031;-64
2024/03/23 03:34:33;;;;;;;6.43;2.83;;;8.70;91.80;;;;;;5070637;28;20056;-66
2024/03/23 03:36:59;;;;;;;6.82;2.97;;;8.70;91.90;;;;;;5068352;28;20360;-66
2024/03/23 03:39:25;;;;;;;6.03;3.30;;;8.70;91.90;;;;;;5070433;28;20052;-66
2024/03/23 03:41:50;;;;;;;5.57;2.63;;;8.60;91.80;;;;;;5067940;28;20051;-65
2024/03/23 03:44:16;;;;;;;7.55;3.58;;;8.60;91.90;;;;;;5068669;28;20021;-65
2024/03/23 03:46:42;;;;;;;7.82;3.30;;;8.60;91.90;;;;;;5070662;28;20402;-65
2024/03/23 03:49:08;;;;;;;5.70;2.25;;;8.60;91.90;;;;;;5068881;28;20041;-65
2024/03/23 03:51:34;;;;;;;5.32;2.88;;;8.50;91.90;;;;;;5070361;28;20475;-64
2024/03/23 03:54:00;;;;;;;5.07;2.53;;;8.50;91.90;;;;;;5068741;28;20029;-65
2024/03/23 03:56:25;;;;;;;4.88;2.20;;;8.50;91.90;;;;;;5072574;28;20024;-65
2024/03/23 03:58:51;;;;;;;5.95;2.40;;;8.50;91.90;;;;;;5067320;28;20028;-66
2024/03/23 04:01:17;;;;;;;4.72;2.35;;;8.50;91.90;;;;;;5068407;28;20031;-66
2024/03/23 04:03:43;;;;;;;3.75;2.15;;;8.50;91.90;;;;;;5070961;28;20490;-65
2024/03/23 04:06:09;;;;;;;5.03;2.40;;;8.40;91.90;;;;;;5069148;28;20669;-64
2024/03/23 04:08:35;;;;;;;6.50;2.75;;;8.40;92.00;;;;;;5070788;28;20387;-66
2024/03/23 04:11:01;;;;;;;6.05;2.90;;;8.40;92.00;;;;;;5070599;28;20025;-65
2024/03/23 04:13:27;;;;;;;5.35;2.35;;;8.40;92.00;;;;;;5075989;28;20040;-65
2024/03/23 04:15:56;;;;;;;3.92;2.17;;;8.30;92.00;;;;;;5068616;28;20043;-66
2024/03/23 04:18:22;;;;;;;5.18;2.40;;;8.40;92.00;;;;;;5067668;28;20036;-65
2024/03/23 04:20:49;;;;;;;3.92;2.28;;;8.30;92.00;;;;;;5067873;28;20101;-66
2024/03/23 04:23:15;;;;;;;4.00;2.22;;;8.30;92.00;;;;;;5070521;28;20420;-65
2024/03/23 04:25:40;;;;;;;4.60;2.20;;;8.30;91.90;;;;;;5068645;28;20052;-65
2024/03/23 04:28:06;;;;;;;4.05;2.20;;;8.30;91.90;;;;;;5068937;28;20047;-65
2024/03/23 04:30:32;;;;;;;8.00;2.78;;;8.20;91.90;;;;;;5068749;28;20637;-67
2024/03/23 04:32:58;;;;;;;4.13;2.30;;;8.20;91.90;;;;;;5066304;28;20036;-67
2024/03/23 04:35:26;;;;;;;6.38;2.17;;;8.20;92.00;;;;;;5066068;28;20483;-67
2024/03/23 04:37:53;;;;;;;4.95;2.67;;;8.20;92.00;;;;;;5068353;28;20481;-66
2024/03/23 04:40:19;;;;;;;5.90;2.63;;;8.10;92.00;;;;;;5070278;28;20029;-65
2024/03/23 04:42:44;;;;;;;2.67;1.80;;;8.10;92.00;;;;;;5069395;28;20084;-66
2024/03/23 04:45:10;;;;;;;3.03;1.73;;;8.10;92.00;;;;;;5068767;28;20361;-65
2024/03/23 04:47:37;;;;;;;2.83;1.83;;;8.00;92.00;;;;;;5068527;28;20420;-67
2024/03/23 04:50:03;;;;;;;5.57;2.15;;;8.00;92.00;;;;;;5068986;28;20033;-66
2024/03/23 04:52:29;;;;;;;4.32;2.05;;;8.00;92.00;;;;;;5065487;28;20089;-66
2024/03/23 04:54:55;;;;;;;3.60;2.05;;;8.00;92.10;;;;;;5071451;28;20033;-65
2024/03/23 04:57:21;;;;;;;5.38;1.67;;;8.00;92.00;;;;;;5069023;28;20052;-67
2024/03/23 04:59:47;;;;;;;3.45;1.67;;;8.00;92.00;;;;;;5067031;28;20055;-67
2024/03/23 05:02:13;;;;;;;3.67;2.03;;;7.90;92.00;;;;;;5072863;28;20024;-67
2024/03/23 05:04:40;;;;;;;2.47;1.58;;;7.90;92.00;;;;;;5067092;28;20036;-66
2024/03/23 05:07:06;;;;;;;2.42;1.50;;;7.90;92.00;;;;;;5068150;28;20024;-67
2024/03/23 05:09:32;;;;;;;5.00;1.42;;;7.90;92.00;;;;;;5070442;28;20036;-66
2024/03/23 05:12:01;;;;;;;3.70;1.60;;;7.80;92.00;;;;;;5064418;28;20028;-65
2024/03/23 05:14:26;;;;;;;3.22;1.30;;;7.80;92.00;;;;;;5067553;28;20426;-65
2024/03/23 05:16:53;;;;;;;2.67;1.30;;;7.80;92.00;;;;;;5066483;28;20067;-66
2024/03/23 05:19:18;;;;;;;3.67;1.40;;;7.80;92.00;;;;;;5068083;28;20052;-67
2024/03/23 05:21:44;;;;;;;2.40;1.20;;;7.80;92.00;;;;;;5067759;28;20059;-66
2024/03/23 05:24:10;;;;;;;3.75;1.23;;;7.80;92.00;;;;;;5069530;28;20052;-66
2024/03/23 05:26:35;;;;;;;2.15;1.10;;;7.80;91.90;;;;;;5070581;28;20497;-66
2024/03/23 05:29:02;;;;;;;2.03;1.10;;;7.80;91.90;;;;;;5066026;28;20052;-65
2024/03/23 05:31:30;;;;;;;1.38;0.95;;;7.80;91.90;;;;;;5067066;28;20058;-67
2024/03/23 05:33:55;;;;;;;3.72;1.58;;;7.80;91.80;;;;;;5068069;28;20025;-66
2024/03/23 05:36:21;;;;;;;4.43;1.80;;;7.80;91.80;;;;;;5070439;28;20020;-67
2024/03/23 05:38:47;;;;;;;4.20;1.50;;;7.80;91.80;;;;;;5069012;28;20035;-65
2024/03/23 05:41:13;;;;;;;3.40;1.60;;;7.80;91.80;;;;;;5068859;28;20025;-66
2024/03/23 05:43:39;;;;;;;2.65;1.40;;;7.80;91.70;;;;;;5070529;28;20036;-66
2024/03/23 05:46:08;;;;;;;2.55;1.30;;;7.80;91.70;;;;;;5069643;28;20092;-66
2024/03/23 05:48:34;;;;;;;2.20;1.30;;;7.80;91.60;;;;;;5065441;28;20039;-65
2024/03/23 05:51:00;;;;;;;4.40;1.75;;;7.80;91.60;;;;;;5071154;28;20052;-64
2024/03/23 05:53:25;;;;;;;2.95;1.85;;;7.70;91.60;;;;;;5067538;28;20611;-66
2024/03/23 05:56:00;;;;;;;3.17;1.40;;;7.80;91.60;;;;;;5070379;28;20032;-66
2024/03/23 05:58:26;;;;;;;2.38;1.20;;;7.80;91.60;;;;;;5069964;28;20096;-66
2024/03/23 06:01:01;;;;;;;3.35;1.25;;;7.80;91.60;;;;;;5066865;28;20100;-64
2024/03/23 06:03:27;;;;;;;1.48;1.10;;;7.80;91.60;;;;;;5088499;28;20082;-66
2024/03/23 06:05:53;;;;;;;1.45;1.15;;;7.80;91.70;;;;;;5071855;28;20044;-66
2024/03/23 06:08:19;;;;;;;2.63;1.20;;;7.80;91.70;;;;;;5071320;28;20123;-66
2024/03/23 06:10:45;;;;;;;2.08;1.20;;;7.90;91.90;;;;;;5070588;28;20020;-66
2024/03/23 06:13:11;;;;;;;1.52;1.15;;;8.00;92.00;;;;;;5070536;28;20596;-65
2024/03/23 06:15:37;;;;;;;1.75;1.00;;;8.30;92.20;;;;;;5073194;28;20091;-67
2024/03/23 06:18:04;;;;;;;5.93;1.50;;;8.90;91.80;;;;;;5074159;28;20107;-66
2024/03/23 06:20:30;;;;;;;3.13;1.20;;;9.90;90.20;;;;;;5071222;28;20032;-65
2024/03/23 06:22:56;;;;;;;2.92;0.93;;;10.60;87.00;;;;;;5069787;28;20090;-65
2024/03/23 06:25:21;;;;;;;2.63;0.98;;;10.40;85.40;;;;;;5068219;28;20067;-66
2024/03/23 06:27:47;;;;;;;1.63;1.05;;;10.00;85.60;;;;;;5071213;28;20021;-65
2024/03/23 06:30:13;;;;;;;2.95;1.30;;;9.70;86.30;;;;;;5073933;28;20028;-66
2024/03/23 06:32:38;;;;;;;4.38;1.08;;;9.60;87.20;;;;;;5071947;28;20086;-66
2024/03/23 06:35:08;;;;;;;2.33;0.90;;;9.50;87.80;;;;;;5069679;28;20020;-67
2024/03/23 06:37:34;;;;;;;3.55;1.15;;;9.40;87.80;;;;;;5072222;28;20036;-67
2024/03/23 06:40:00;;;;;;;2.28;1.00;;;9.30;88.30;;;;;;5068165;28;20028;-66
2024/03/23 06:42:26;;;;;;;3.25;1.08;;;9.30;88.50;;;;;;5068082;28;20028;-66
2024/03/23 06:44:51;;;;;;;2.30;0.93;;;9.30;89.40;;;;;;5069105;28;20021;-66
2024/03/23 06:47:17;;;;;;;2.38;1.00;;;9.30;88.70;;;;;;5070226;28;20086;-66
2024/03/23 06:49:43;;;;;;;1.88;0.80;;;9.40;89.30;;;;;;5067538;28;20414;-67
2024/03/23 06:52:08;;;;;;;2.15;0.98;;;9.60;88.60;;;;;;5069400;28;20047;-66
2024/03/23 06:54:34;;;;;;;2.35;1.10;;;9.70;88.10;;;;;;5069941;28;20095;-67
2024/03/23 06:57:00;;;;;;;2.47;1.10;;;9.70;87.70;;;;;;5068507;28;20031;-66
2024/03/23 06:59:25;;;;;;;5.50;1.25;;;9.50;87.50;;;;;;5069320;28;20025;-64
2024/03/23 07:01:51;;;;;;;3.17;1.10;;;9.30;87.60;;;;;;5068864;28;20074;-66
2024/03/23 07:04:16;;;;;;;2.58;1.20;;;9.20;88.10;;;;;;5066977;28;20028;-66
2024/03/23 07:06:45;;;;;;;2.10;0.85;;;9.20;88.50;;;;;;5072091;28;20035;-65
2024/03/23 07:09:11;;;;;;;3.83;1.27;;;9.30;88.40;;;;;;5068773;28;20021;-66
2024/03/23 07:11:37;;;;;;;2.30;0.93;;;9.40;88.00;;;;;;5071847;28;20466;-65
2024/03/23 07:14:03;;;;;;;3.10;1.00;;;9.30;87.70;;;;;;5067992;28;20036;-66
2024/03/23 07:16:29;;;;;;;3.25;1.48;;;9.30;87.80;;;;;;5073334;28;20028;-65
2024/03/23 07:18:55;;;;;;;4.57;1.30;;;9.30;88.10;;;;;;5072003;28;20029;-66
2024/03/23 07:21:21;;;;;;;2.50;1.17;;;9.20;87.90;;;;;;5068260;28;20044;-66
2024/03/23 07:23:46;;;;;;;2.60;1.10;;;9.30;88.00;;;;;;5070122;28;20429;-65
2024/03/23 07:26:12;;;;;;;3.20;1.35;;;9.40;87.80;;;;;;5070287;28;20047;-66
2024/03/23 07:28:38;;;;;;;2.67;1.13;;;9.40;87.60;;;;;;5074783;28;20031;-65
2024/03/23 07:31:08;;;;;;;2.47;1.20;;;9.50;87.50;;;;;;5067514;28;20078;-65
2024/03/23 07:33:36;;;;;;;2.78;1.27;;;9.60;87.50;;;;;;5067388;28;20384;-68
2024/03/23 07:36:03;;;;;;;2.90;1.45;;;9.60;87.10;;;;;;5072789;28;20498;-64
2024/03/23 07:38:29;;;;;;;2.53;1.40;;;9.80;87.10;;;;;;5069639;28;20033;-66
2024/03/23 07:41:13;;;;;;;2.70;1.17;;;10.00;86.90;;;;;;5069137;28;20052;-66
2024/03/23 07:43:40;;;;;;;2.08;1.20;;;10.10;86.40;;;;;;5067611;28;20028;-64
2024/03/23 07:46:06;;;;;;;5.60;1.60;;;10.10;86.10;;;;;;5066925;28;20124;-64
2024/03/23 07:48:31;;;;;;;4.38;1.60;;;10.00;86.00;;;;;;5064638;28;20104;-66
2024/03/23 07:51:01;;;;;;;3.33;1.40;;;10.10;86.20;;;;;;5069491;28;20112;-65
2024/03/23 07:53:31;;;;;;;3.13;1.70;;;10.10;86.00;;;;;;5085855;28;20040;-65
2024/03/23 07:56:08;;;;;;;5.00;1.80;;;10.10;86.00;;;;;;5068205;28;20039;-65
2024/03/23 07:58:34;;;;;;;8.60;2.30;;;10.00;85.80;;;;;;5069091;28;20478;-66
2024/03/23 08:01:16;;;;;;;5.28;1.88;;;10.00;85.30;;;;;;5062003;28;20889;-65
2024/03/23 08:03:44;;;;;;;5.28;1.60;;;9.90;85.80;;;;;;5066848;28;20032;-65
2024/03/23 08:06:09;;;;;;;3.75;1.48;;;9.90;85.90;;;;;;5066085;28;20048;-66
2024/03/23 08:08:35;;;;;;;4.50;1.48;;;9.90;86.00;;;;;;5068626;28;20082;-66
2024/03/23 08:11:01;;;;;;;3.38;1.48;;;9.90;86.10;;;;;;5060781;28;20024;-64
2024/03/23 08:13:26;;;;;;;1.98;1.13;;;9.80;86.10;;;;;;5067333;28;20092;-66
2024/03/23 08:15:56;;;;;;;3.83;1.23;;;9.90;86.20;;;;;;5067081;28;20032;-66
2024/03/23 08:18:21;;;;;;;2.38;1.27;;;9.90;86.00;;;;;;5065742;28;20035;-66
2024/03/23 08:20:48;;;;;;;5.03;1.40;;;9.90;86.20;;;;;;5063375;28;20051;-64
2024/03/23 08:23:13;;;;;;;2.80;1.48;;;9.90;85.90;;;;;;5064690;28;20115;-65
2024/03/23 08:25:39;;;;;;;2.92;1.30;;;9.90;85.70;;;;;;5062782;28;20115;-64
2024/03/23 08:28:05;;;;;;;4.65;1.90;;;9.90;85.70;;;;;;5065285;28;20604;-67
2024/03/23 08:30:31;;;;;;;5.75;1.52;;;10.00;85.80;;;;;;5063421;28;20082;-64
2024/03/23 08:32:56;;;;;;;2.50;1.27;;;10.10;85.40;;;;;;5061882;28;20120;-65
2024/03/23 08:35:22;;;;;;;3.13;1.27;;;10.00;85.30;;;;;;5063953;28;20119;-65
2024/03/23 08:37:48;;;;;;;3.58;1.50;;;10.00;85.50;;;;;;5067161;28;20043;-64
2024/03/23 08:40:13;;;;;;;4.95;1.80;;;10.00;85.20;;;;;;5064451;28;20391;-64
2024/03/23 08:42:39;;;;;;;3.15;1.30;;;9.90;85.00;;;;;;5065819;28;20032;-66
2024/03/23 08:45:07;;;;;;;1.95;1.30;;;9.90;85.30;;;;;;5065952;28;20025;-64
2024/03/23 08:47:34;;;;;;;4.10;1.60;;;9.90;85.30;;;;;;5065071;28;20024;-65
2024/03/23 08:50:00;;;;;;;3.33;1.30;;;9.90;85.10;;;;;;5064492;28;20078;-67
2024/03/23 08:52:28;;;;;;;2.45;1.33;;;9.80;85.00;;;;;;5064318;28;20032;-65
2024/03/23 08:54:53;;;;;;;2.33;1.15;;;9.90;85.10;;;;;;5064884;28;20051;-65
2024/03/23 08:57:19;;;;;;;3.38;1.40;;;9.90;84.90;;;;;;5063564;28;20052;-65
2024/03/23 08:59:45;;;;;;;4.78;1.50;;;9.90;84.60;;;;;;5064300;28;20025;-65
2024/03/23 09:02:10;;;;;;;3.53;1.30;;;9.80;84.70;;;;;;5065528;28;20079;-65
2024/03/23 09:04:36;;;;;;;3.00;1.00;;;9.60;84.80;;;;;;5066501;28;20032;-65
2024/03/23 09:07:01;;;;;;;1.40;1.30;;;9.40;85.00;;;;;;5066691;28;20028;-64
2024/03/23 09:09:27;;;;;;;2.90;0.90;;;9.10;85.20;;;;;;5065186;28;20052;-65
2024/03/23 09:11:52;;;;;;;1.30;0.80;;;8.90;85.60;;;;;;5064282;28;20029;-66
2024/03/23 09:14:18;;;;;;;2.08;0.90;;;8.90;85.90;;;;;;5065322;28;20044;-64
2024/03/23 09:16:44;;;;;;;0.98;0.80;;;8.80;86.10;;;;;;5063267;28;20093;-65
2024/03/23 09:19:10;;;;;;;2.35;1.02;;;8.80;86.30;;;;;;5064164;28;20036;-64
2024/03/23 09:21:35;;;;;;;1.75;0.95;;;8.80;86.10;;;;;;5066217;28;20028;-63
2024/03/23 09:24:01;;;;;;;4.65;1.20;;;8.80;86.20;;;;;;5067152;28;20021;-66
2024/03/23 09:26:27;;;;;;;2.47;1.10;;;8.80;86.10;;;;;;5066422;28;20096;-63
2024/03/23 09:28:52;;;;;;;3.55;1.30;;;8.80;86.10;;;;;;5063513;28;20016;-66
2024/03/23 09:31:19;;;;;;;3.83;1.20;;;8.70;85.80;;;;;;5064974;28;20064;-67
2024/03/23 09:33:45;;;;;;;3.55;1.17;;;8.70;85.90;;;;;;5057964;28;20064;-66
2024/03/23 09:36:10;;;;;;;4.85;1.70;;;8.80;85.80;;;;;;5057845;28;20171;-66
2024/03/23 09:38:36;;;;;;;4.00;1.83;;;8.90;85.70;;;;;;5069200;28;20101;-66
2024/03/23 09:41:07;;;;;;;4.88;1.90;;;9.00;85.60;;;;;;5068818;28;20024;-66
2024/03/23 09:43:33;;;;;;;3.22;1.38;;;9.20;85.50;;;;;;5068486;28;20036;-66
2024/03/23 09:45:59;;;;;;;3.97;1.80;;;9.30;85.10;;;;;;5065496;28;20066;-66
2024/03/23 09:48:25;;;;;;;6.03;2.30;;;9.40;85.00;;;;;;5067192;28;20566;-66
2024/03/23 09:50:51;;;;;;;5.75;2.53;;;9.50;84.80;;;;;;5071059;28;20478;-65
2024/03/23 09:53:16;;;;;;;5.05;1.90;;;9.60;84.60;;;;;;5065883;28;20032;-67
2024/03/23 09:55:44;;;;;;;5.63;1.92;;;9.70;84.50;;;;;;5064944;28;20032;-67
2024/03/23 09:58:13;;;;;;;4.53;1.80;;;9.80;84.30;;;;;;5064286;28;20067;-67
2024/03/23 10:00:39;;;;;;;3.63;1.60;;;10.10;84.00;;;;;;5064116;28;20036;-67
2024/03/23 10:03:06;;;;;;;3.95;1.58;;;10.20;82.70;;;;;;5068760;28;20101;-66
2024/03/23 10:05:33;;;;;;;4.97;1.42;;;10.30;82.20;;;;;;5069568;28;20031;-67
2024/03/23 10:08:15;;;;;;;3.85;1.30;;;10.30;81.90;;;;;;5063096;28;20134;-66
2024/03/23 10:10:41;;;;;;;2.65;1.08;;;10.30;81.50;;;;;;5066253;28;20032;-66
2024/03/23 10:13:06;;;;;;;2.20;0.82;;;10.20;81.70;;;;;;5067802;28;20017;-66
2024/03/23 10:15:35;;;;;;;3.95;1.00;;;9.90;80.30;;;;;;5070399;28;20037;-66
2024/03/23 10:18:22;;;;;;;3.08;0.98;;;9.70;81.50;;;;;;5067286;28;20021;-66
2024/03/23 10:21:05;;;;;;;2.78;1.05;;;9.50;81.80;;;;;;5062794;28;20033;-65
2024/03/23 10:23:35;;;;;;;4.20;1.40;;;9.30;82.20;;;;;;5067315;28;20020;-65
2024/03/23 10:26:23;;;;;;;2.00;0.70;;;9.30;82.70;;;;;;5065018;28;20032;-66
2024/03/23 10:28:59;;;;;;;2.15;0.80;;;9.30;82.90;;;;;;5066335;28;20108;-67
2024/03/23 10:31:25;;;;;;;2.90;0.90;;;9.40;83.10;;;;;;5068283;28;20455;-67
2024/03/23 10:33:53;;;;;;;1.52;0.90;;;9.30;82.90;;;;;;5065125;28;20039;-67
2024/03/23 10:36:20;;;;;;;2.65;1.05;;;9.30;83.00;;;;;;5065578;28;20021;-66
2024/03/23 10:38:46;;;;;;;2.65;0.90;;;9.10;82.30;;;;;;5068319;28;20021;-65
2024/03/23 10:41:12;;;;;;;2.45;0.80;;;8.80;82.50;;;;;;5066964;28;20029;-66
2024/03/23 10:43:38;;;;;;;4.40;1.40;;;8.60;83.20;;;;;;5063764;28;20049;-64
2024/03/23 10:46:05;;;;;;;3.03;1.40;;;8.50;83.40;;;;;;5065954;28;20047;-65
2024/03/23 10:48:34;;;;;;;3.92;1.20;;;8.40;83.90;;;;;;5062762;28;20074;-66
2024/03/23 10:50:59;;;;;;;2.90;1.38;;;8.40;84.10;;;;;;5065776;28;20037;-65
2024/03/23 10:53:27;;;;;;;2.80;1.10;;;8.40;84.10;;;;;;5063130;28;20050;-66
2024/03/23 10:55:54;;;;;;;2.35;1.20;;;8.60;84.10;;;;;;5055328;28;20099;-66
2024/03/23 10:58:26;;;;;;;2.28;1.00;;;8.80;84.00;;;;;;5060344;28;20138;-67
2024/03/23 11:00:53;;;;;;;3.78;1.17;;;8.90;83.80;;;;;;5067125;28;20024;-66
2024/03/23 11:03:36;;;;;;;1.92;0.98;;;9.10;82.70;;;;;;5062538;28;20494;-66
2024/03/23 11:06:06;;;;;;;2.65;1.42;;;9.20;82.60;;;;;;5060838;28;20017;-66
2024/03/23 11:08:36;;;;;;;2.65;1.02;;;9.40;81.80;;;;;;5064846;28;20029;-65
2024/03/23 11:11:21;;;;;;;3.40;1.20;;;9.60;81.50;;;;;;5060685;28;20021;-64
2024/03/23 11:13:49;;;;;;;3.75;1.13;;;9.70;81.20;;;;;;5059965;28;20111;-66
2024/03/23 11:16:16;;;;;;;3.50;1.20;;;9.90;80.80;;;;;;5061117;28;20025;-65
2024/03/23 11:18:43;;;;;;;4.15;1.10;;;10.00;80.40;;;;;;5060426;28;20036;-65
2024/03/23 11:21:09;;;;;;;4.85;1.35;;;10.30;79.80;;;;;;5058800;28;20032;-65
2024/03/23 11:23:35;;;;;;;2.58;1.20;;;10.50;79.30;;;;;;5061922;28;20089;-66
2024/03/23 11:26:00;;;;;;;3.45;1.20;;;10.60;78.10;;;;;;5061076;28;20020;-65
2024/03/23 11:28:26;;;;;;;5.40;1.35;;;10.70;77.60;;;;;;5064795;28;20036;-65
2024/03/23 11:30:52;;;;;;;4.47;1.20;;;10.70;76.50;;;;;;5064494;28;20017;-65
2024/03/23 11:33:18;;;;;;;2.42;1.10;;;10.40;76.80;;;;;;5062974;28;20491;-65
2024/03/23 11:35:43;;;;;;;2.72;0.75;;;10.20;77.70;;;;;;5062934;28;20107;-67
2024/03/23 11:38:11;;;;;;;2.10;0.73;;;10.10;78.20;;;;;;5064415;28;20027;-65
2024/03/23 11:40:45;;;;;;;2.65;1.00;;;10.00;78.50;;;;;;5066706;28;20031;-66
2024/03/23 11:43:13;;;;;;;2.75;0.88;;;10.00;78.60;;;;;;5060226;28;20028;-66
2024/03/23 11:45:47;;;;;;;3.05;1.10;;;9.90;78.50;;;;;;5064502;28;20121;-64
2024/03/23 11:48:18;;;;;;;2.50;1.15;;;9.80;78.60;;;;;;5067072;28;20059;-66
2024/03/23 11:50:45;;;;;;;;;;;9.90;78.90;;;;;;5064957;28;20074;-66
2024/03/23 11:53:14;;;;;;;1.17;0.82;;;10.10;78.90;;;;;;5060836;28;19993;-66
2024/03/23 11:55:47;;;;;;;3.50;1.05;;;10.40;78.70;;;;;;5060042;28;20038;-66
2024/03/23 11:58:14;;;;;;;5.03;1.05;;;10.70;78.10;;;;;;5062854;28;20037;-66
2024/03/23 12:00:40;;;;;;;3.22;1.20;;;10.90;77.60;;;;;;5064436;28;20032;-65
2024/03/23 12:03:06;;;;;;;3.38;1.20;;;10.90;77.20;;;;;;5066509;28;20027;-65
2024/03/23 12:05:33;;;;;;;5.15;1.00;;;10.90;77.00;;;;;;5063290;28;20028;-65
2024/03/23 12:08:18;;;;;;;3.65;1.40;;;10.80;77.20;;;;;;5058860;28;20107;-65
2024/03/23 12:10:52;;;;;;;3.33;1.20;;;10.70;77.20;;;;;;5065519;28;20234;-65
2024/03/23 12:13:21;;;;;;;2.42;1.05;;;10.50;77.00;;;;;;5063972;28;20119;-68
2024/03/23 12:15:49;;;;;;;2.47;1.00;;;10.30;77.70;;;;;;5068503;28;20072;-68
2024/03/23 12:18:15;;;;;;;2.65;0.95;;;10.10;77.90;;;;;;5064034;28;21519;-67
2024/03/23 12:20:41;;;;;;;2.53;0.80;;;9.90;77.60;;;;;;5069197;28;20032;-66
2024/03/23 12:23:15;;;;;;;2.00;0.70;;;9.80;77.80;;;;;;5065976;28;20032;-67
2024/03/23 12:25:41;;;;;;;1.85;0.85;;;9.80;78.10;;;;;;5071083;28;20032;-65
2024/03/23 12:28:07;;;;;;;2.83;1.00;;;9.80;78.30;;;;;;5067976;28;20033;-68
2024/03/23 12:30:39;;;;;;;2.53;0.90;;;9.70;77.80;;;;;;5071601;28;20035;-68
2024/03/23 12:33:05;;;;;;;3.05;0.90;;;9.80;77.90;;;;;;5073134;28;20028;-67
2024/03/23 12:35:30;;;;;;;1.25;0.70;;;9.90;77.70;;;;;;5070113;28;20020;-66
2024/03/23 12:37:56;;;;;;;2.10;0.80;;;10.00;77.50;;;;;;5065812;28;20496;-65
2024/03/23 12:40:22;;;;;;;1.83;0.73;;;10.20;77.50;;;;;;5065835;28;20549;-66
2024/03/23 12:42:47;;;;;;;2.55;0.90;;;10.30;76.90;;;;;;5064060;28;20135;-67
2024/03/23 12:45:13;;;;;;;3.00;1.00;;;10.30;77.00;;;;;;5067407;28;20079;-66
2024/03/23 12:47:39;;;;;;;3.30;0.98;;;10.40;77.10;;;;;;5066378;28;20035;-66
2024/03/23 12:50:05;;;;;;;2.30;1.02;;;10.40;76.40;;;;;;5068148;28;20498;-66
2024/03/23 12:52:32;;;;;;;2.83;0.90;;;10.40;76.70;;;;;;5070424;28;20041;-67
2024/03/23 12:54:57;;;;;;;2.20;1.05;;;10.40;76.00;;;;;;5071460;28;20455;-68